sensor_id;sensor_type;location;lat;lon;timestamp;pressure;altitude;pressure_sealevel;temperature;humidity
76766;BME280;65707;52.362;6.588;2023-07-13T00:02:04;101348.28;;;16.98;69.79
76766;BME280;65707;52.362;6.588;2023-07-13T00:04:32;101336.84;;;16.96;69.88
76766;BME280;65707;52.362;6.588;2023-07-13T00:06:59;101343.22;;;16.89;70.33
76766;BME280;65707;52.362;6.588;2023-07-13T00:09:26;101346.31;;;16.86;70.33
76766;BME280;65707;52.362;6.588;2023-07-13T00:11:54;101346.72;;;16.83;70.69
76766;BME280;65707;52.362;6.588;2023-07-13T00:14:22;101340.44;;;16.76;71.02
76766;BME280;65707;52.362;6.588;2023-07-13T00:16:49;101335.22;;;16.81;70.80
76766;BME280;65707;52.362;6.588;2023-07-13T00:19:15;101339.97;;;16.72;71.32
76766;BME280;65707;52.362;6.588;2023-07-13T00:21:44;101344.28;;;16.67;71.70
76766;BME280;65707;52.362;6.588;2023-07-13T00:24:12;101340.75;;;16.66;71.60
76766;BME280;65707;52.362;6.588;2023-07-13T00:26:39;101337.19;;;16.66;71.61
76766;BME280;65707;52.362;6.588;2023-07-13T00:29:06;101337.13;;;16.59;71.99
76766;BME280;65707;52.362;6.588;2023-07-13T00:31:35;101336.09;;;16.60;71.85
76766;BME280;65707;52.362;6.588;2023-07-13T00:34:02;101334.69;;;16.64;71.80
76766;BME280;65707;52.362;6.588;2023-07-13T00:36:29;101338.38;;;16.57;72.33
76766;BME280;65707;52.362;6.588;2023-07-13T00:38:58;101337.34;;;16.58;72.30
76766;BME280;65707;52.362;6.588;2023-07-13T00:41:25;101341.88;;;16.51;72.64
76766;BME280;65707;52.362;6.588;2023-07-13T00:43:51;101349.81;;;16.52;72.73
76766;BME280;65707;52.362;6.588;2023-07-13T00:46:22;101353.06;;;16.48;73.14
76766;BME280;65707;52.362;6.588;2023-07-13T00:48:50;101358.50;;;16.48;73.15
76766;BME280;65707;52.362;6.588;2023-07-13T00:51:22;101352.06;;;16.49;73.23
76766;BME280;65707;52.362;6.588;2023-07-13T00:53:51;101349.94;;;16.44;73.49
76766;BME280;65707;52.362;6.588;2023-07-13T00:56:21;101354.31;;;16.45;73.32
76766;BME280;65707;52.362;6.588;2023-07-13T00:58:47;101359.81;;;16.37;73.73
76766;BME280;65707;52.362;6.588;2023-07-13T01:01:15;101364.59;;;16.35;73.89
76766;BME280;65707;52.362;6.588;2023-07-13T01:03:43;101364.94;;;16.26;74.23
76766;BME280;65707;52.362;6.588;2023-07-13T01:06:10;101363.25;;;16.25;74.36
76766;BME280;65707;52.362;6.588;2023-07-13T01:08:37;101364.00;;;16.19;74.44
76766;BME280;65707;52.362;6.588;2023-07-13T01:11:05;101364.41;;;16.16;74.78
76766;BME280;65707;52.362;6.588;2023-07-13T01:13:34;101357.69;;;16.12;74.76
76766;BME280;65707;52.362;6.588;2023-07-13T01:16:04;101358.06;;;16.09;74.73
76766;BME280;65707;52.362;6.588;2023-07-13T01:18:33;101358.63;;;16.04;74.64
76766;BME280;65707;52.362;6.588;2023-07-13T01:21:03;101361.16;;;16.06;74.90
76766;BME280;65707;52.362;6.588;2023-07-13T01:23:32;101360.44;;;15.97;75.09
76766;BME280;65707;52.362;6.588;2023-07-13T01:26:00;101360.88;;;16.01;75.25
76766;BME280;65707;52.362;6.588;2023-07-13T01:28:28;101367.16;;;16.01;75.18
76766;BME280;65707;52.362;6.588;2023-07-13T01:30:57;101363.78;;;15.99;75.29
76766;BME280;65707;52.362;6.588;2023-07-13T01:33:25;101357.94;;;15.96;75.55
76766;BME280;65707;52.362;6.588;2023-07-13T01:35:52;101366.88;;;15.96;75.48
76766;BME280;65707;52.362;6.588;2023-07-13T01:38:21;101356.44;;;15.93;75.61
76766;BME280;65707;52.362;6.588;2023-07-13T01:40:49;101358.69;;;15.90;75.64
76766;BME280;65707;52.362;6.588;2023-07-13T01:43:16;101364.47;;;15.87;75.90
76766;BME280;65707;52.362;6.588;2023-07-13T01:45:43;101357.97;;;15.81;76.15
76766;BME280;65707;52.362;6.588;2023-07-13T01:48:10;101364.41;;;15.80;76.55
76766;BME280;65707;52.362;6.588;2023-07-13T01:50:37;101358.53;;;15.77;76.67
76766;BME280;65707;52.362;6.588;2023-07-13T01:53:04;101368.22;;;15.71;76.96
76766;BME280;65707;52.362;6.588;2023-07-13T01:55:33;101357.16;;;15.66;77.08
76766;BME280;65707;52.362;6.588;2023-07-13T01:58:00;101357.50;;;15.63;77.51
76766;BME280;65707;52.362;6.588;2023-07-13T02:00:27;101360.78;;;15.59;77.13
76766;BME280;65707;52.362;6.588;2023-07-13T02:02:54;101355.38;;;15.59;76.98
76766;BME280;65707;52.362;6.588;2023-07-13T02:05:20;101362.56;;;15.52;77.94
76766;BME280;65707;52.362;6.588;2023-07-13T02:07:48;101356.13;;;15.52;77.63
76766;BME280;65707;52.362;6.588;2023-07-13T02:10:15;101359.03;;;15.51;77.90
76766;BME280;65707;52.362;6.588;2023-07-13T02:12:44;101360.53;;;15.54;77.68
76766;BME280;65707;52.362;6.588;2023-07-13T02:15:11;101364.25;;;15.52;77.74
76766;BME280;65707;52.362;6.588;2023-07-13T02:17:38;101363.25;;;15.54;77.61
76766;BME280;65707;52.362;6.588;2023-07-13T02:20:06;101362.09;;;15.48;77.83
76766;BME280;65707;52.362;6.588;2023-07-13T02:22:33;101366.22;;;15.44;77.94
76766;BME280;65707;52.362;6.588;2023-07-13T02:25:00;101370.59;;;15.45;78.63
76766;BME280;65707;52.362;6.588;2023-07-13T02:27:27;101363.13;;;15.47;78.09
76766;BME280;65707;52.362;6.588;2023-07-13T02:29:55;101362.38;;;15.53;77.85
76766;BME280;65707;52.362;6.588;2023-07-13T02:32:22;101366.38;;;15.57;77.55
76766;BME280;65707;52.362;6.588;2023-07-13T02:34:50;101357.88;;;15.60;77.58
76766;BME280;65707;52.362;6.588;2023-07-13T02:37:17;101364.69;;;15.71;77.00
76766;BME280;65707;52.362;6.588;2023-07-13T02:39:44;101369.66;;;15.67;77.04
76766;BME280;65707;52.362;6.588;2023-07-13T02:42:11;101371.78;;;15.72;76.66
76766;BME280;65707;52.362;6.588;2023-07-13T02:44:38;101372.91;;;15.77;76.71
76766;BME280;65707;52.362;6.588;2023-07-13T02:47:06;101374.78;;;15.77;76.79
76766;BME280;65707;52.362;6.588;2023-07-13T02:49:33;101369.81;;;15.80;76.25
76766;BME280;65707;52.362;6.588;2023-07-13T02:52:00;101370.75;;;15.73;76.62
76766;BME280;65707;52.362;6.588;2023-07-13T02:54:26;101374.78;;;15.77;76.53
76766;BME280;65707;52.362;6.588;2023-07-13T02:56:53;101372.25;;;15.75;76.67
76766;BME280;65707;52.362;6.588;2023-07-13T02:59:20;101375.66;;;15.84;76.54
76766;BME280;65707;52.362;6.588;2023-07-13T03:01:46;101377.09;;;15.80;76.57
76766;BME280;65707;52.362;6.588;2023-07-13T03:04:15;101367.13;;;15.80;76.57
76766;BME280;65707;52.362;6.588;2023-07-13T03:06:44;101363.28;;;15.75;76.58
76766;BME280;65707;52.362;6.588;2023-07-13T03:09:11;101371.78;;;15.72;76.74
76766;BME280;65707;52.362;6.588;2023-07-13T03:11:38;101371.50;;;15.67;77.00
76766;BME280;65707;52.362;6.588;2023-07-13T03:14:05;101373.09;;;15.61;77.22
76766;BME280;65707;52.362;6.588;2023-07-13T03:16:32;101378.81;;;15.52;77.71
76766;BME280;65707;52.362;6.588;2023-07-13T03:18:58;101377.75;;;15.52;77.60
76766;BME280;65707;52.362;6.588;2023-07-13T03:21:26;101378.63;;;15.53;77.47
76766;BME280;65707;52.362;6.588;2023-07-13T03:23:53;101382.06;;;15.47;77.86
76766;BME280;65707;52.362;6.588;2023-07-13T03:26:20;101388.75;;;15.36;78.18
76766;BME280;65707;52.362;6.588;2023-07-13T03:28:47;101385.03;;;15.37;78.38
76766;BME280;65707;52.362;6.588;2023-07-13T03:31:19;101385.88;;;15.38;78.36
76766;BME280;65707;52.362;6.588;2023-07-13T03:33:46;101386.13;;;15.28;78.42
76766;BME280;65707;52.362;6.588;2023-07-13T03:36:15;101397.31;;;15.25;78.80
76766;BME280;65707;52.362;6.588;2023-07-13T03:38:46;101396.31;;;15.26;78.83
76766;BME280;65707;52.362;6.588;2023-07-13T03:41:13;101393.69;;;15.18;79.22
76766;BME280;65707;52.362;6.588;2023-07-13T03:43:40;101397.22;;;15.19;79.36
76766;BME280;65707;52.362;6.588;2023-07-13T03:46:07;101404.50;;;15.18;79.40
76766;BME280;65707;52.362;6.588;2023-07-13T03:48:34;101410.94;;;15.17;79.34
76766;BME280;65707;52.362;6.588;2023-07-13T03:51:00;101407.69;;;15.22;79.33
76766;BME280;65707;52.362;6.588;2023-07-13T03:53:27;101425.09;;;15.19;79.47
76766;BME280;65707;52.362;6.588;2023-07-13T03:55:56;101406.28;;;15.26;79.12
76766;BME280;65707;52.362;6.588;2023-07-13T03:58:26;101411.69;;;15.26;79.59
76766;BME280;65707;52.362;6.588;2023-07-13T04:00:53;101409.44;;;15.29;79.40
76766;BME280;65707;52.362;6.588;2023-07-13T04:03:20;101417.75;;;15.28;79.27
76766;BME280;65707;52.362;6.588;2023-07-13T04:05:47;101419.88;;;15.18;79.83
76766;BME280;65707;52.362;6.588;2023-07-13T04:08:14;101427.16;;;15.17;79.83
76766;BME280;65707;52.362;6.588;2023-07-13T04:10:41;101425.56;;;15.23;79.73
76766;BME280;65707;52.362;6.588;2023-07-13T04:13:09;101424.91;;;15.21;79.87
76766;BME280;65707;52.362;6.588;2023-07-13T04:15:36;101425.16;;;15.11;80.05
76766;BME280;65707;52.362;6.588;2023-07-13T04:18:03;101426.13;;;15.18;80.08
76766;BME280;65707;52.362;6.588;2023-07-13T04:20:30;101432.19;;;15.20;80.18
76766;BME280;65707;52.362;6.588;2023-07-13T04:22:57;101433.19;;;15.19;80.20
76766;BME280;65707;52.362;6.588;2023-07-13T04:25:24;101436.28;;;15.16;80.51
76766;BME280;65707;52.362;6.588;2023-07-13T04:27:52;101438.78;;;15.18;80.53
76766;BME280;65707;52.362;6.588;2023-07-13T04:30:20;101433.38;;;15.18;81.02
76766;BME280;65707;52.362;6.588;2023-07-13T04:32:47;101437.97;;;15.17;81.18
76766;BME280;65707;52.362;6.588;2023-07-13T04:35:14;101444.00;;;15.19;80.91
76766;BME280;65707;52.362;6.588;2023-07-13T04:37:41;101448.03;;;15.23;81.26
76766;BME280;65707;52.362;6.588;2023-07-13T04:40:08;101446.53;;;15.21;81.40
76766;BME280;65707;52.362;6.588;2023-07-13T04:42:37;101445.41;;;15.15;81.51
76766;BME280;65707;52.362;6.588;2023-07-13T04:45:04;101445.53;;;15.22;81.40
76766;BME280;65707;52.362;6.588;2023-07-13T04:47:33;101443.47;;;15.24;81.48
76766;BME280;65707;52.362;6.588;2023-07-13T04:50:00;101446.94;;;15.32;81.49
76766;BME280;65707;52.362;6.588;2023-07-13T04:52:27;101447.41;;;15.36;81.33
76766;BME280;65707;52.362;6.588;2023-07-13T04:54:53;101443.53;;;15.38;81.57
76766;BME280;65707;52.362;6.588;2023-07-13T04:57:20;101450.25;;;15.42;81.42
76766;BME280;65707;52.362;6.588;2023-07-13T04:59:47;101456.41;;;15.51;81.40
76766;BME280;65707;52.362;6.588;2023-07-13T05:02:14;101454.38;;;15.53;81.48
76766;BME280;65707;52.362;6.588;2023-07-13T05:04:42;101459.88;;;15.60;81.35
76766;BME280;65707;52.362;6.588;2023-07-13T05:07:09;101466.75;;;15.62;81.08
76766;BME280;65707;52.362;6.588;2023-07-13T05:09:36;101464.34;;;15.67;81.39
76766;BME280;65707;52.362;6.588;2023-07-13T05:12:06;101459.03;;;15.74;81.01
76766;BME280;65707;52.362;6.588;2023-07-13T05:14:33;101453.25;;;15.77;81.21
76766;BME280;65707;52.362;6.588;2023-07-13T05:16:59;101462.09;;;15.85;80.86
76766;BME280;65707;52.362;6.588;2023-07-13T05:19:26;101466.31;;;15.88;80.68
76766;BME280;65707;52.362;6.588;2023-07-13T05:21:55;101463.69;;;15.94;80.65
76766;BME280;65707;52.362;6.588;2023-07-13T05:24:22;101465.19;;;15.97;80.62
76766;BME280;65707;52.362;6.588;2023-07-13T05:26:48;101470.13;;;16.08;80.33
76766;BME280;65707;52.362;6.588;2023-07-13T05:29:15;101464.97;;;16.13;79.81
76766;BME280;65707;52.362;6.588;2023-07-13T05:31:42;101459.09;;;16.09;80.07
76766;BME280;65707;52.362;6.588;2023-07-13T05:34:09;101467.38;;;16.22;79.94
76766;BME280;65707;52.362;6.588;2023-07-13T05:36:35;101465.78;;;16.28;79.75
76766;BME280;65707;52.362;6.588;2023-07-13T05:39:04;101458.88;;;16.25;79.96
76766;BME280;65707;52.362;6.588;2023-07-13T05:41:31;101472.22;;;16.41;79.51
76766;BME280;65707;52.362;6.588;2023-07-13T05:43:57;101474.72;;;16.43;79.66
76766;BME280;65707;52.362;6.588;2023-07-13T05:46:24;101470.44;;;16.48;79.87
76766;BME280;65707;52.362;6.588;2023-07-13T05:48:51;101480.97;;;16.58;79.52
76766;BME280;65707;52.362;6.588;2023-07-13T05:51:18;101478.25;;;16.58;79.73
76766;BME280;65707;52.362;6.588;2023-07-13T05:53:45;101473.63;;;16.73;79.75
76766;BME280;65707;52.362;6.588;2023-07-13T05:56:13;101479.09;;;16.79;79.49
76766;BME280;65707;52.362;6.588;2023-07-13T05:58:40;101477.88;;;16.82;79.49
76766;BME280;65707;52.362;6.588;2023-07-13T06:01:10;101493.25;;;16.96;79.15
76766;BME280;65707;52.362;6.588;2023-07-13T06:03:37;101488.59;;;16.90;nan
76766;BME280;65707;52.362;6.588;2023-07-13T06:06:04;101491.53;;;16.95;79.11
76766;BME280;65707;52.362;6.588;2023-07-13T06:08:31;101496.44;;;17.06;78.81
76766;BME280;65707;52.362;6.588;2023-07-13T06:11:03;101489.81;;;17.09;78.44
76766;BME280;65707;52.362;6.588;2023-07-13T06:13:31;101498.22;;;17.14;78.75
76766;BME280;65707;52.362;6.588;2023-07-13T06:15:58;101498.91;;;17.22;78.31
76766;BME280;65707;52.362;6.588;2023-07-13T06:18:25;101496.25;;;17.29;78.53
76766;BME280;65707;52.362;6.588;2023-07-13T06:20:52;101493.59;;;17.35;77.86
76766;BME280;65707;52.362;6.588;2023-07-13T06:23:19;101503.00;;;17.39;78.19
76766;BME280;65707;52.362;6.588;2023-07-13T06:25:45;101505.59;;;17.47;77.96
76766;BME280;65707;52.362;6.588;2023-07-13T06:28:12;101499.38;;;17.53;77.50
76766;BME280;65707;52.362;6.588;2023-07-13T06:30:40;101510.03;;;17.55;77.41
76766;BME280;65707;52.362;6.588;2023-07-13T06:33:07;101521.81;;;17.62;78.08
76766;BME280;65707;52.362;6.588;2023-07-13T06:35:34;101524.16;;;17.71;76.84
76766;BME280;65707;52.362;6.588;2023-07-13T06:38:01;101521.84;;;17.68;77.67
76766;BME280;65707;52.362;6.588;2023-07-13T06:40:28;101521.72;;;17.76;77.80
76766;BME280;65707;52.362;6.588;2023-07-13T06:42:55;101520.91;;;17.82;77.20
76766;BME280;65707;52.362;6.588;2023-07-13T06:45:22;101528.50;;;17.93;77.20
76766;BME280;65707;52.362;6.588;2023-07-13T06:47:50;101529.72;;;17.91;76.92
76766;BME280;65707;52.362;6.588;2023-07-13T06:50:17;101526.84;;;17.92;77.18
76766;BME280;65707;52.362;6.588;2023-07-13T06:52:44;101530.06;;;18.09;76.87
76766;BME280;65707;52.362;6.588;2023-07-13T06:55:10;101524.53;;;18.30;76.51
76766;BME280;65707;52.362;6.588;2023-07-13T06:57:37;101537.16;;;18.44;74.67
76766;BME280;65707;52.362;6.588;2023-07-13T07:00:05;101534.59;;;18.36;75.56
76766;BME280;65707;52.362;6.588;2023-07-13T07:02:35;101534.28;;;18.52;75.05
76766;BME280;65707;52.362;6.588;2023-07-13T07:05:03;101533.66;;;18.63;74.76
76766;BME280;65707;52.362;6.588;2023-07-13T07:07:30;101536.41;;;18.70;74.29
76766;BME280;65707;52.362;6.588;2023-07-13T07:09:57;101535.38;;;18.71;74.36
76766;BME280;65707;52.362;6.588;2023-07-13T07:12:24;101532.25;;;18.74;74.66
76766;BME280;65707;52.362;6.588;2023-07-13T07:14:50;101542.13;;;18.88;74.26
76766;BME280;65707;52.362;6.588;2023-07-13T07:17:17;101536.91;;;18.99;73.42
76766;BME280;65707;52.362;6.588;2023-07-13T07:19:44;101541.53;;;19.05;72.93
76766;BME280;65707;52.362;6.588;2023-07-13T07:22:12;101541.75;;;19.17;73.19
76766;BME280;65707;52.362;6.588;2023-07-13T07:24:39;101539.25;;;19.22;72.64
76766;BME280;65707;52.362;6.588;2023-07-13T07:27:06;101538.81;;;19.18;72.61
76766;BME280;65707;52.362;6.588;2023-07-13T07:29:33;101540.06;;;19.09;72.59
76766;BME280;65707;52.362;6.588;2023-07-13T07:32:00;101543.00;;;19.14;73.21
76766;BME280;65707;52.362;6.588;2023-07-13T07:34:26;101544.06;;;19.20;72.00
76766;BME280;65707;52.362;6.588;2023-07-13T07:36:54;101547.25;;;19.30;72.61
76766;BME280;65707;52.362;6.588;2023-07-13T07:39:22;101542.84;;;19.48;71.90
76766;BME280;65707;52.362;6.588;2023-07-13T07:41:48;101540.13;;;19.55;71.66
76766;BME280;65707;52.362;6.588;2023-07-13T07:44:15;101539.06;;;19.62;70.51
76766;BME280;65707;52.362;6.588;2023-07-13T07:46:42;101529.63;;;19.78;70.42
76766;BME280;65707;52.362;6.588;2023-07-13T07:49:09;101549.97;;;19.56;70.29
76766;BME280;65707;52.362;6.588;2023-07-13T07:51:35;101545.38;;;19.63;69.93
76766;BME280;65707;52.362;6.588;2023-07-13T07:54:03;101542.00;;;19.80;69.86
76766;BME280;65707;52.362;6.588;2023-07-13T07:56:32;101531.06;;;20.00;68.83
76766;BME280;65707;52.362;6.588;2023-07-13T07:58:59;101538.22;;;19.75;68.61
76766;BME280;65707;52.362;6.588;2023-07-13T08:01:25;101539.72;;;19.64;68.53
76766;BME280;65707;52.362;6.588;2023-07-13T08:03:52;101543.06;;;19.73;69.33
76766;BME280;65707;52.362;6.588;2023-07-13T08:06:19;101541.81;;;19.69;69.56
76766;BME280;65707;52.362;6.588;2023-07-13T08:08:47;101537.38;;;19.81;68.53
76766;BME280;65707;52.362;6.588;2023-07-13T08:11:14;101539.06;;;19.82;68.63
76766;BME280;65707;52.362;6.588;2023-07-13T08:13:42;101533.97;;;20.12;68.08
76766;BME280;65707;52.362;6.588;2023-07-13T08:16:08;101530.84;;;20.21;68.54
76766;BME280;65707;52.362;6.588;2023-07-13T08:18:35;101518.63;;;20.30;66.78
76766;BME280;65707;52.362;6.588;2023-07-13T08:21:04;101516.53;;;20.39;66.14
76766;BME280;65707;52.362;6.588;2023-07-13T08:23:31;101517.94;;;20.48;66.42
76766;BME280;65707;52.362;6.588;2023-07-13T08:25:57;101515.19;;;20.54;65.53
76766;BME280;65707;52.362;6.588;2023-07-13T08:28:27;101525.16;;;20.10;65.71
76766;BME280;65707;52.362;6.588;2023-07-13T08:31:00;101536.06;;;20.29;66.92
76766;BME280;65707;52.362;6.588;2023-07-13T08:33:27;101534.94;;;20.43;66.04
76766;BME280;65707;52.362;6.588;2023-07-13T08:35:53;101541.81;;;20.52;65.15
76766;BME280;65707;52.362;6.588;2023-07-13T08:38:20;101535.91;;;20.62;65.46
76766;BME280;65707;52.362;6.588;2023-07-13T08:40:54;101533.03;;;21.25;62.26
76766;BME280;65707;52.362;6.588;2023-07-13T08:43:25;101523.66;;;21.15;62.06
76766;BME280;65707;52.362;6.588;2023-07-13T08:45:57;101522.94;;;21.01;62.97
76766;BME280;65707;52.362;6.588;2023-07-13T08:48:28;101524.50;;;21.15;63.60
76766;BME280;65707;52.362;6.588;2023-07-13T08:50:59;101515.88;;;21.68;61.54
76766;BME280;65707;52.362;6.588;2023-07-13T08:53:33;101517.09;;;21.72;61.84
76766;BME280;65707;52.362;6.588;2023-07-13T08:56:02;101496.34;;;22.43;59.43
76766;BME280;65707;52.362;6.588;2023-07-13T08:58:29;101485.06;;;22.69;58.17
76766;BME280;65707;52.362;6.588;2023-07-13T09:01:02;101494.75;;;22.35;59.13
76766;BME280;65707;52.362;6.588;2023-07-13T09:03:36;101506.25;;;22.73;58.55
76766;BME280;65707;52.362;6.588;2023-07-13T09:06:06;101501.22;;;22.59;58.41
76766;BME280;65707;52.362;6.588;2023-07-13T09:08:42;101507.28;;;22.90;57.91
76766;BME280;65707;52.362;6.588;2023-07-13T09:11:22;101488.53;;;23.17;56.81
76766;BME280;65707;52.362;6.588;2023-07-13T09:14:01;101491.00;;;23.83;55.87
76766;BME280;65707;52.362;6.588;2023-07-13T09:16:30;101494.34;;;23.39;55.44
76766;BME280;65707;52.362;6.588;2023-07-13T09:19:01;101494.97;;;22.70;57.24
76766;BME280;65707;52.362;6.588;2023-07-13T09:21:32;101497.34;;;22.30;58.40
76766;BME280;65707;52.362;6.588;2023-07-13T09:24:24;101507.00;;;22.15;59.97
76766;BME280;65707;52.362;6.588;2023-07-13T09:26:54;101517.16;;;21.90;61.60
76766;BME280;65707;52.362;6.588;2023-07-13T09:29:28;101513.50;;;21.71;62.00
76766;BME280;65707;52.362;6.588;2023-07-13T09:31:58;101528.59;;;21.56;63.36
76766;BME280;65707;52.362;6.588;2023-07-13T09:34:28;101538.25;;;21.58;63.24
76766;BME280;65707;52.362;6.588;2023-07-13T09:36:56;101519.66;;;21.67;61.18
76766;BME280;65707;52.362;6.588;2023-07-13T09:39:26;101530.75;;;21.72;61.76
76766;BME280;65707;52.362;6.588;2023-07-13T09:41:59;101516.53;;;22.42;60.19
76766;BME280;65707;52.362;6.588;2023-07-13T09:44:29;101506.00;;;23.34;56.13
76766;BME280;65707;52.362;6.588;2023-07-13T09:46:59;101484.31;;;23.90;55.02
76766;BME280;65707;52.362;6.588;2023-07-13T09:49:28;101460.78;;;24.69;52.26
76766;BME280;65707;52.362;6.588;2023-07-13T09:51:59;101464.81;;;24.94;51.85
76766;BME280;65707;52.362;6.588;2023-07-13T09:54:27;101456.03;;;25.42;48.18
76766;BME280;65707;52.362;6.588;2023-07-13T09:56:55;101464.38;;;24.58;50.08
76766;BME280;65707;52.362;6.588;2023-07-13T09:59:24;101475.88;;;24.43;51.49
76766;BME280;65707;52.362;6.588;2023-07-13T10:01:50;101486.09;;;23.50;52.38
76766;BME280;65707;52.362;6.588;2023-07-13T10:04:20;101501.91;;;23.25;52.99
76766;BME280;65707;52.362;6.588;2023-07-13T10:06:47;101517.84;;;22.21;56.33
76766;BME280;65707;52.362;6.588;2023-07-13T10:09:15;101519.66;;;21.91;57.83
76766;BME280;65707;52.362;6.588;2023-07-13T10:11:44;101511.38;;;21.80;58.70
76766;BME280;65707;52.362;6.588;2023-07-13T10:14:14;101532.44;;;21.48;59.82
76766;BME280;65707;52.362;6.588;2023-07-13T10:16:43;101533.25;;;21.73;59.21
76766;BME280;65707;52.362;6.588;2023-07-13T10:19:13;101513.00;;;22.23;57.06
76766;BME280;65707;52.362;6.588;2023-07-13T10:21:54;101525.63;;;22.24;56.34
76766;BME280;65707;52.362;6.588;2023-07-13T10:24:23;101534.03;;;22.05;59.21
76766;BME280;65707;52.362;6.588;2023-07-13T10:26:54;101564.31;;;21.29;64.56
76766;BME280;65707;52.362;6.588;2023-07-13T10:29:25;101574.38;;;20.41;69.46
76766;BME280;65707;52.362;6.588;2023-07-13T10:31:53;101578.03;;;19.82;74.05
76766;BME280;65707;52.362;6.588;2023-07-13T10:34:20;101586.63;;;19.47;72.66
76766;BME280;65707;52.362;6.588;2023-07-13T10:36:49;101610.72;;;18.83;77.85
76766;BME280;65707;52.362;6.588;2023-07-13T10:39:19;101610.34;;;18.45;80.53
76766;BME280;65707;52.362;6.588;2023-07-13T10:41:52;101616.44;;;18.54;82.31
76766;BME280;65707;52.362;6.588;2023-07-13T10:44:22;101613.41;;;19.30;80.39
76766;BME280;65707;52.362;6.588;2023-07-13T10:46:54;101605.50;;;19.61;78.91
76766;BME280;65707;52.362;6.588;2023-07-13T10:49:23;101604.22;;;20.29;77.24
76766;BME280;65707;52.362;6.588;2023-07-13T10:51:51;101611.63;;;20.73;75.48
76766;BME280;65707;52.362;6.588;2023-07-13T10:54:20;101603.63;;;21.22;74.18
76766;BME280;65707;52.362;6.588;2023-07-13T10:56:53;101591.41;;;21.87;70.10
76766;BME280;65707;52.362;6.588;2023-07-13T10:59:33;101595.56;;;22.32;72.40
76766;BME280;65707;52.362;6.588;2023-07-13T11:02:11;101583.25;;;22.95;65.52
76766;BME280;65707;52.362;6.588;2023-07-13T11:04:43;101590.47;;;23.19;65.06
76766;BME280;65707;52.362;6.588;2023-07-13T11:07:20;101579.41;;;23.44;62.06
76766;BME280;65707;52.362;6.588;2023-07-13T11:09:50;101581.72;;;23.81;62.50
76766;BME280;65707;52.362;6.588;2023-07-13T11:15:11;101573.97;;;23.26;62.02
76766;BME280;65707;52.362;6.588;2023-07-13T11:17:48;101580.03;;;23.69;61.88
76766;BME280;65707;52.362;6.588;2023-07-13T11:20:39;101572.53;;;24.45;62.10
76766;BME280;65707;52.362;6.588;2023-07-13T11:23:26;101529.13;;;25.26;53.68
76766;BME280;65707;52.362;6.588;2023-07-13T11:25:54;101532.41;;;25.73;53.75
76766;BME280;65707;52.362;6.588;2023-07-13T11:28:23;101527.72;;;25.90;51.93
76766;BME280;65707;52.362;6.588;2023-07-13T11:31:10;101519.03;;;25.98;50.32
76766;BME280;65707;52.362;6.588;2023-07-13T11:33:53;101530.66;;;25.50;49.94
76766;BME280;65707;52.362;6.588;2023-07-13T11:36:21;101542.03;;;24.70;52.36
76766;BME280;65707;52.362;6.588;2023-07-13T11:38:56;101552.97;;;24.41;54.52
76766;BME280;65707;52.362;6.588;2023-07-13T11:41:28;101542.81;;;25.38;51.46
76766;BME280;65707;52.362;6.588;2023-07-13T11:44:07;101559.75;;;25.63;51.51
76766;BME280;65707;52.362;6.588;2023-07-13T11:46:34;101546.34;;;24.77;52.34
76766;BME280;65707;52.362;6.588;2023-07-13T11:49:01;101585.44;;;24.10;53.90
76766;BME280;65707;52.362;6.588;2023-07-13T11:51:33;101590.06;;;24.44;55.83
76766;BME280;65707;52.362;6.588;2023-07-13T11:54:04;101553.06;;;25.42;50.90
76766;BME280;65707;52.362;6.588;2023-07-13T11:56:32;101527.66;;;25.85;47.59
76766;BME280;65707;52.362;6.588;2023-07-13T11:59:05;101510.56;;;26.00;43.66
76766;BME280;65707;52.362;6.588;2023-07-13T12:01:36;101511.47;;;26.05;43.91
76766;BME280;65707;52.362;6.588;2023-07-13T12:04:18;101492.91;;;26.60;41.72
76766;BME280;65707;52.362;6.588;2023-07-13T12:06:47;101507.63;;;26.92;42.46
76766;BME280;65707;52.362;6.588;2023-07-13T12:09:20;101507.44;;;27.62;43.24
76766;BME280;65707;52.362;6.588;2023-07-13T12:11:50;101495.19;;;27.85;40.27
76766;BME280;65707;52.362;6.588;2023-07-13T12:14:18;101499.00;;;28.20;40.11
76766;BME280;65707;52.362;6.588;2023-07-13T12:16:46;101510.00;;;28.15;41.78
76766;BME280;65707;52.362;6.588;2023-07-13T12:19:18;101523.75;;;28.52;39.81
76766;BME280;65707;52.362;6.588;2023-07-13T12:21:47;101542.88;;;27.80;42.49
76766;BME280;65707;52.362;6.588;2023-07-13T12:24:15;101553.09;;;26.52;44.11
76766;BME280;65707;52.362;6.588;2023-07-13T12:26:44;101585.47;;;25.12;48.02
76766;BME280;65707;52.362;6.588;2023-07-13T12:29:17;101604.41;;;24.23;51.66
76766;BME280;65707;52.362;6.588;2023-07-13T12:31:46;101596.47;;;23.57;54.04
76766;BME280;65707;52.362;6.588;2023-07-13T12:34:14;101598.75;;;23.01;54.50
76766;BME280;65707;52.362;6.588;2023-07-13T12:36:46;101627.63;;;22.25;56.75
76766;BME280;65707;52.362;6.588;2023-07-13T12:39:17;101630.88;;;22.15;56.82
76766;BME280;65707;52.362;6.588;2023-07-13T12:41:48;101660.38;;;21.82;60.83
76766;BME280;65707;52.362;6.588;2023-07-13T12:44:17;101676.94;;;21.18;68.29
76766;BME280;65707;52.362;6.588;2023-07-13T12:46:51;101682.00;;;20.25;69.98
76766;BME280;65707;52.362;6.588;2023-07-13T12:49:23;101684.28;;;19.76;70.96
76766;BME280;65707;52.362;6.588;2023-07-13T12:51:56;101690.25;;;19.39;72.50
76766;BME280;65707;52.362;6.588;2023-07-13T12:54:23;101707.09;;;19.08;76.39
76766;BME280;65707;52.362;6.588;2023-07-13T12:56:53;101703.72;;;18.66;77.56
76766;BME280;65707;52.362;6.588;2023-07-13T12:59:23;101695.72;;;18.30;77.33
76766;BME280;65707;52.362;6.588;2023-07-13T13:01:51;101692.13;;;18.02;79.39